Time;durP1;ratioP1;P1;durP2;ratioP2;P2;SDS_P1;SDS_P2;PMS_P1;PMS_P2;Temp;Humidity;BMP_temperature;BMP_pressure;BME280_temperature;BME280_humidity;BME280_pressure;Samples;Min_cycle;Max_cycle;Signal;HPM_P1;HPM_P2
2022/01/29 00:00:14;;;;;;;;;;;20.90;49.50;;;;;;5085383;28;20331;-68
2022/01/29 00:02:40;;;;;;;;;;;20.90;49.50;;;;;;5088366;28;20018;-68
2022/01/29 00:05:11;;;;;;;;;;;20.90;49.50;;;;;;5089476;28;19922;-68
2022/01/29 00:07:42;;;;;;;;;;;20.90;49.50;;;;;;5089057;28;20321;-68
2022/01/29 00:10:11;;;;;;;;;;;20.80;49.50;;;;;;5089872;28;19911;-68
2022/01/29 00:12:37;;;;;;;;;;;20.80;49.50;;;;;;5088399;28;19916;-68
2022/01/29 00:15:02;;;;;;;;;;;20.80;49.50;;;;;;5084348;28;19995;-68
2022/01/29 00:17:28;;;;;;;;;;;20.80;49.50;;;;;;5088438;28;20011;-69
2022/01/29 00:19:53;;;;;;;;;;;20.80;49.50;;;;;;5088194;28;20411;-68
2022/01/29 00:22:19;;;;;;;;;;;20.80;49.50;;;;;;5088566;28;19912;-65
2022/01/29 00:24:45;;;;;;;;;;;20.80;49.50;;;;;;5088613;28;19912;-67
2022/01/29 00:27:10;;;;;;;;;;;20.70;49.50;;;;;;5085097;28;20269;-66
2022/01/29 00:29:39;;;;;;;;;;;20.70;49.50;;;;;;5084688;28;20006;-68
2022/01/29 00:32:05;;;;;;;;;;;20.80;49.60;;;;;;5089376;28;19920;-65
2022/01/29 00:34:30;;;;;;;;;;;20.70;49.50;;;;;;5087181;28;21934;-67
2022/01/29 00:36:56;;;;;;;;;;;20.70;49.60;;;;;;5086985;28;19930;-66
2022/01/29 00:39:22;;;;;;;;;;;20.70;49.50;;;;;;5084788;28;19921;-68
2022/01/29 00:41:48;;;;;;;;;;;20.70;49.60;;;;;;5087294;28;19965;-69
2022/01/29 00:44:13;;;;;;;;;;;20.70;49.60;;;;;;5084960;28;19916;-67
2022/01/29 00:46:41;;;;;;;;;;;20.70;49.60;;;;;;5088082;28;19912;-68
2022/01/29 00:49:07;;;;;;;;;;;20.60;49.60;;;;;;5079886;28;19947;-69
2022/01/29 00:51:32;;;;;;;;;;;20.60;49.60;;;;;;5087416;28;19919;-67
2022/01/29 00:53:58;;;;;;;;;;;20.60;49.60;;;;;;5081483;28;19917;-67
2022/01/29 00:56:23;;;;;;;;;;;20.60;49.60;;;;;;5081699;28;19989;-67
2022/01/29 00:58:49;;;;;;;;;;;20.60;49.60;;;;;;5086121;28;19962;-68
2022/01/29 01:01:14;;;;;;;;;;;20.60;49.60;;;;;;5084490;28;20536;-65
2022/01/29 01:03:40;;;;;;;;;;;20.60;49.60;;;;;;5085787;28;19920;-65
2022/01/29 01:06:05;;;;;;;;;;;20.60;49.60;;;;;;5084216;28;20003;-68
2022/01/29 01:08:31;;;;;;;;;;;20.60;49.60;;;;;;5087591;28;19916;-68
2022/01/29 01:10:56;;;;;;;;;;;20.60;49.60;;;;;;5088421;28;20405;-66
2022/01/29 01:13:22;;;;;;;;;;;20.50;49.60;;;;;;5085914;28;19916;-69
2022/01/29 01:15:48;;;;;;;;;;;20.50;49.60;;;;;;5084365;28;19928;-69
2022/01/29 01:18:13;;;;;;;;;;;20.50;49.60;;;;;;5087527;28;19975;-67
2022/01/29 01:20:39;;;;;;;;;;;20.50;49.60;;;;;;5088022;28;19996;-68
2022/01/29 01:23:04;;;;;;;;;;;20.50;49.60;;;;;;5084058;28;19923;-69
2022/01/29 01:25:29;;;;;;;;;;;20.50;49.70;;;;;;5085424;28;20256;-67
2022/01/29 01:27:56;;;;;;;;;;;20.50;49.70;;;;;;5082177;28;19923;-68
2022/01/29 01:30:22;;;;;;;;;;;20.50;49.70;;;;;;5087000;28;19916;-65
2022/01/29 01:32:47;;;;;;;;;;;20.50;49.70;;;;;;5087230;28;20065;-69
2022/01/29 01:35:27;;;;;;;;;;;20.50;50.20;;;;;;5088532;28;20008;-66
2022/01/29 01:38:01;;;;;;;;;;;20.50;49.70;;;;;;5086149;28;20042;-66
2022/01/29 01:40:28;;;;;;;;;;;20.40;49.60;;;;;;5078124;28;19916;-69
2022/01/29 01:43:00;;;;;;;;;;;20.40;49.70;;;;;;5081616;28;21530;-67
2022/01/29 01:45:26;;;;;;;;;;;20.40;49.60;;;;;;5085375;28;20344;-68
2022/01/29 01:47:52;;;;;;;;;;;20.40;49.60;;;;;;5081514;28;19912;-66
2022/01/29 01:50:17;;;;;;;;;;;20.40;49.70;;;;;;5086222;28;19977;-67
2022/01/29 01:52:43;;;;;;;;;;;20.40;49.70;;;;;;5083081;28;19920;-65
2022/01/29 01:55:08;;;;;;;;;;;20.40;49.70;;;;;;5088892;28;19916;-65
2022/01/29 01:57:34;;;;;;;;;;;20.40;49.70;;;;;;5081225;28;20673;-65
2022/01/29 02:00:00;;;;;;;;;;;20.40;49.70;;;;;;5085836;28;19915;-66
2022/01/29 02:02:25;;;;;;;;;;;20.40;49.70;;;;;;5086318;28;20364;-66
2022/01/29 02:04:51;;;;;;;;;;;20.40;49.70;;;;;;5087393;28;19916;-69
2022/01/29 02:07:17;;;;;;;;;;;20.40;49.70;;;;;;5083584;28;19947;-65
2022/01/29 02:09:43;;;;;;;;;;;20.40;49.70;;;;;;5083646;28;19916;-67
2022/01/29 02:12:10;;;;;;;;;;;20.30;49.60;;;;;;5083497;28;19995;-68
2022/01/29 02:14:35;;;;;;;;;;;20.30;49.70;;;;;;5083139;28;19924;-67
2022/01/29 02:17:02;;;;;;;;;;;20.30;49.70;;;;;;5088393;28;19920;-68
2022/01/29 02:19:27;;;;;;;;;;;20.30;49.70;;;;;;5086658;28;19912;-69
2022/01/29 02:21:54;;;;;;;;;;;20.30;49.70;;;;;;5087344;28;20414;-67
2022/01/29 02:24:19;;;;;;;;;;;20.30;49.70;;;;;;5081781;28;19912;-68
2022/01/29 02:26:45;;;;;;;;;;;20.30;49.70;;;;;;5085248;28;19966;-68
2022/01/29 02:29:10;;;;;;;;;;;20.30;49.70;;;;;;5082401;28;20337;-69
2022/01/29 02:31:44;;;;;;;;;;;20.30;49.70;;;;;;5085011;28;19920;-67
2022/01/29 02:34:09;;;;;;;;;;;20.30;49.70;;;;;;5086849;28;19916;-69
2022/01/29 02:36:35;;;;;;;;;;;20.30;49.70;;;;;;5084907;28;19916;-68
2022/01/29 02:39:00;;;;;;;;;;;20.20;49.70;;;;;;5085042;28;19920;-67
2022/01/29 02:41:28;;;;;;;;;;;20.30;49.70;;;;;;5086342;28;20296;-67
2022/01/29 02:43:56;;;;;;;;;;;20.30;49.70;;;;;;5079314;28;19955;-69
2022/01/29 02:46:30;;;;;;;;;;;20.30;49.70;;;;;;5083049;28;19955;-67
2022/01/29 02:48:58;;;;;;;;;;;20.30;49.70;;;;;;5085445;28;19916;-68
2022/01/29 02:51:24;;;;;;;;;;;20.20;49.70;;;;;;5081764;28;19912;-65
2022/01/29 02:53:50;;;;;;;;;;;20.20;49.70;;;;;;5086550;28;19943;-68
2022/01/29 02:56:15;;;;;;;;;;;20.20;49.70;;;;;;5082704;28;19924;-65
2022/01/29 02:58:41;;;;;;;;;;;20.20;49.70;;;;;;5081847;28;20495;-68
2022/01/29 03:01:07;;;;;;;;;;;20.20;49.70;;;;;;5085471;28;20459;-67
2022/01/29 03:03:33;;;;;;;;;;;20.20;49.70;;;;;;5085047;28;19995;-68
2022/01/29 03:05:58;;;;;;;;;;;20.20;49.70;;;;;;5079880;28;20007;-67
2022/01/29 03:08:24;;;;;;;;;;;20.20;49.70;;;;;;5086023;28;19919;-69
2022/01/29 03:10:50;;;;;;;;;;;20.20;49.70;;;;;;5085469;28;19912;-65
2022/01/29 03:13:16;;;;;;;;;;;20.20;49.70;;;;;;5084143;28;19949;-68
2022/01/29 03:15:42;;;;;;;;;;;20.10;49.60;;;;;;5078423;28;19963;-69
2022/01/29 03:18:07;;;;;;;;;;;20.10;49.70;;;;;;5082276;28;19951;-67
2022/01/29 03:20:33;;;;;;;;;;;20.20;49.70;;;;;;5084015;28;19916;-69
2022/01/29 03:22:59;;;;;;;;;;;20.20;49.70;;;;;;5087058;28;19918;-68
2022/01/29 03:25:25;;;;;;;;;;;20.10;49.70;;;;;;5085922;28;19912;-66
2022/01/29 03:27:50;;;;;;;;;;;20.10;49.70;;;;;;5081557;28;19923;-67
2022/01/29 03:30:16;;;;;;;;;;;20.10;49.60;;;;;;5083965;28;20011;-65
2022/01/29 03:32:42;;;;;;;;;;;20.10;49.60;;;;;;5084994;28;20356;-68
2022/01/29 03:35:08;;;;;;;;;;;20.20;50.20;;;;;;5082816;28;20007;-67
2022/01/29 03:37:34;;;;;;;;;;;20.10;49.60;;;;;;5084815;28;19927;-69
2022/01/29 03:40:03;;;;;;;;;;;20.10;49.60;;;;;;5083190;28;20008;-69
2022/01/29 03:42:32;;;;;;;;;;;20.10;49.60;;;;;;5083504;28;19916;-68
2022/01/29 03:44:58;;;;;;;;;;;20.10;49.70;;;;;;5081799;28;19916;-66
2022/01/29 03:47:23;;;;;;;;;;;20.10;49.70;;;;;;5085159;28;19916;-69
2022/01/29 03:49:49;;;;;;;;;;;20.10;49.60;;;;;;5083541;28;22580;-66
2022/01/29 03:52:15;;;;;;;;;;;20.10;49.60;;;;;;5084505;28;19957;-68
2022/01/29 03:54:40;;;;;;;;;;;20.10;49.60;;;;;;5085222;28;19916;-67
2022/01/29 03:57:06;;;;;;;;;;;20.10;49.70;;;;;;5084159;28;19916;-67
2022/01/29 03:59:31;;;;;;;;;;;20.10;49.60;;;;;;5082189;28;19923;-68
2022/01/29 04:01:57;;;;;;;;;;;20.10;49.60;;;;;;5083630;28;19927;-67
2022/01/29 04:04:22;;;;;;;;;;;20.10;49.60;;;;;;5085408;28;19916;-69
2022/01/29 04:06:50;;;;;;;;;;;20.10;49.60;;;;;;5085302;28;19935;-66
2022/01/29 04:09:17;;;;;;;;;;;20.10;49.60;;;;;;5081743;28;19946;-67
2022/01/29 04:11:43;;;;;;;;;;;20.10;49.70;;;;;;5082001;28;20006;-68
2022/01/29 04:14:15;;;;;;;;;;;20.10;49.70;;;;;;5083293;28;19912;-69
2022/01/29 04:16:41;;;;;;;;;;;20.10;49.70;;;;;;5079443;28;19920;-65
2022/01/29 04:19:06;;;;;;;;;;;20.10;49.70;;;;;;5085190;28;19923;-67
2022/01/29 04:21:32;;;;;;;;;;;20.10;49.70;;;;;;5083096;28;19919;-68
2022/01/29 04:23:57;;;;;;;;;;;20.10;49.70;;;;;;5086295;28;20030;-68
2022/01/29 04:26:23;;;;;;;;;;;20.00;49.60;;;;;;5082055;28;19920;-68
2022/01/29 04:28:49;;;;;;;;;;;20.10;49.70;;;;;;5084904;28;19920;-68
2022/01/29 04:31:18;;;;;;;;;;;20.10;49.80;;;;;;5087116;28;19914;-67
2022/01/29 04:33:44;;;;;;;;;;;20.00;49.70;;;;;;5086509;28;19920;-68
2022/01/29 04:36:11;;;;;;;;;;;20.00;49.70;;;;;;5088662;28;20374;-65
2022/01/29 04:38:36;;;;;;;;;;;20.00;49.70;;;;;;5084853;28;19920;-67
2022/01/29 04:41:04;;;;;;;;;;;20.00;49.70;;;;;;5086292;28;20324;-67
2022/01/29 04:43:36;;;;;;;;;;;20.00;49.70;;;;;;5083728;28;20369;-66
2022/01/29 04:46:02;;;;;;;;;;;20.00;49.80;;;;;;5086486;28;20736;-67
2022/01/29 04:48:27;;;;;;;;;;;20.00;49.80;;;;;;5089366;28;19915;-69
2022/01/29 04:50:53;;;;;;;;;;;20.00;49.80;;;;;;5085655;28;20195;-69
2022/01/29 04:53:19;;;;;;;;;;;20.00;49.80;;;;;;5086565;28;19970;-65
2022/01/29 04:55:44;;;;;;;;;;;20.00;49.80;;;;;;5088107;28;20003;-68
2022/01/29 04:58:10;;;;;;;;;;;20.00;49.80;;;;;;5087102;28;20673;-67
2022/01/29 05:00:35;;;;;;;;;;;20.00;49.80;;;;;;5084386;28;20303;-67
2022/01/29 05:03:13;;;;;;;;;;;20.00;49.90;;;;;;5087974;28;19947;-68
2022/01/29 05:05:39;;;;;;;;;;;20.00;49.90;;;;;;5082986;28;20284;-68
2022/01/29 05:08:05;;;;;;;;;;;20.00;50.00;;;;;;5087180;28;19952;-67
2022/01/29 05:10:31;;;;;;;;;;;20.00;50.00;;;;;;5086883;28;20019;-68
2022/01/29 05:15:35;;;;;;;;;;;19.90;50.00;;;;;;5085564;28;19916;-68
2022/01/29 05:28:58;;;;;;;;;;;19.90;50.00;;;;;;5086537;28;19955;-68
2022/01/29 05:31:23;;;;;;;;;;;19.90;50.00;;;;;;5081151;28;20703;-69
2022/01/29 05:33:49;;;;;;;;;;;19.90;50.10;;;;;;5078405;28;19912;-65
2022/01/29 05:36:14;;;;;;;;;;;19.90;50.10;;;;;;5083364;28;19916;-69
2022/01/29 05:38:40;;;;;;;;;;;19.90;50.00;;;;;;5098473;28;19913;-69
2022/01/29 05:41:05;;;;;;;;;;;19.90;50.00;;;;;;5085002;28;19923;-67
2022/01/29 05:43:31;;;;;;;;;;;19.90;50.10;;;;;;5083563;28;19924;-68
2022/01/29 05:45:57;;;;;;;;;;;19.90;50.10;;;;;;5082945;28;19966;-67
2022/01/29 05:48:22;;;;;;;;;;;19.90;50.10;;;;;;5085809;28;19956;-69
2022/01/29 05:50:48;;;;;;;;;;;19.90;50.10;;;;;;5085600;28;20003;-67
2022/01/29 05:53:13;;;;;;;;;;;19.90;50.10;;;;;;5081027;28;19950;-69
2022/01/29 05:55:39;;;;;;;;;;;19.90;50.10;;;;;;5085044;28;20356;-68
2022/01/29 05:58:04;;;;;;;;;;;19.90;50.10;;;;;;5083142;28;19945;-66
2022/01/29 06:00:30;;;;;;;;;;;19.90;50.20;;;;;;5083328;28;20419;-67
2022/01/29 06:02:59;;;;;;;;;;;19.90;50.20;;;;;;5083722;28;19912;-67
2022/01/29 06:05:25;;;;;;;;;;;19.90;50.20;;;;;;5084535;28;19912;-66
2022/01/29 06:07:51;;;;;;;;;;;19.90;50.20;;;;;;5085532;28;19923;-67
2022/01/29 06:10:17;;;;;;;;;;;19.90;50.20;;;;;;5081934;28;19920;-66
2022/01/29 06:12:42;;;;;;;;;;;19.90;50.20;;;;;;5083227;28;20294;-66
2022/01/29 06:15:08;;;;;;;;;;;19.90;50.20;;;;;;5082412;28;19942;-69
2022/01/29 06:17:34;;;;;;;;;;;19.90;50.20;;;;;;5082894;28;19920;-69
2022/01/29 06:19:59;;;;;;;;;;;19.90;50.20;;;;;;5087474;28;19912;-68
2022/01/29 06:22:26;;;;;;;;;;;19.80;50.20;;;;;;5084118;28;19923;-68
2022/01/29 06:24:51;;;;;;;;;;;19.90;50.20;;;;;;5082637;28;20403;-67
2022/01/29 06:27:17;;;;;;;;;;;19.90;50.20;;;;;;5084993;28;19955;-68
2022/01/29 06:29:42;;;;;;;;;;;19.90;50.20;;;;;;5083142;28;20284;-68
2022/01/29 06:32:08;;;;;;;;;;;19.80;50.20;;;;;;5084673;28;19976;-69
2022/01/29 06:34:33;;;;;;;;;;;19.90;50.30;;;;;;5082842;28;19916;-68
2022/01/29 06:36:59;;;;;;;;;;;19.90;50.30;;;;;;5086554;28;20082;-64
2022/01/29 06:39:24;;;;;;;;;;;19.90;50.30;;;;;;5084627;28;19938;-67
2022/01/29 06:41:50;;;;;;;;;;;19.90;50.30;;;;;;5082836;28;19912;-68
2022/01/29 06:44:16;;;;;;;;;;;19.90;50.30;;;;;;5081517;28;19916;-68
2022/01/29 06:46:41;;;;;;;;;;;19.90;50.40;;;;;;5083991;28;19938;-66
2022/01/29 06:49:07;;;;;;;;;;;19.90;50.30;;;;;;5083332;28;19912;-68
2022/01/29 06:51:32;;;;;;;;;;;19.90;50.30;;;;;;5085941;28;19947;-66
2022/01/29 06:53:58;;;;;;;;;;;19.80;50.20;;;;;;5079091;28;20283;-68
2022/01/29 06:56:23;;;;;;;;;;;19.90;50.30;;;;;;5083349;28;21560;-68
2022/01/29 06:58:49;;;;;;;;;;;19.90;50.30;;;;;;5080098;28;19912;-67
2022/01/29 07:01:14;;;;;;;;;;;19.90;50.30;;;;;;5085584;28;19912;-67
2022/01/29 07:03:40;;;;;;;;;;;19.80;50.30;;;;;;5080008;28;19920;-66
2022/01/29 07:06:05;;;;;;;;;;;19.90;50.30;;;;;;5080268;28;19938;-69
2022/01/29 07:08:34;;;;;;;;;;;19.90;50.30;;;;;;5085292;28;19978;-67
2022/01/29 07:10:59;;;;;;;;;;;19.80;50.30;;;;;;5072635;28;19912;-68
2022/01/29 07:13:25;;;;;;;;;;;19.80;50.20;;;;;;5079226;28;19934;-67
2022/01/29 07:15:52;;;;;;;;;;;19.80;50.30;;;;;;5075124;28;19960;-68
2022/01/29 07:18:17;;;;;;;;;;;19.80;50.20;;;;;;5084151;28;20011;-67
2022/01/29 07:20:43;;;;;;;;;;;19.80;50.20;;;;;;5084147;28;20007;-69
2022/01/29 07:23:08;;;;;;;;;;;19.80;50.30;;;;;;5084566;28;20368;-65
2022/01/29 07:25:34;;;;;;;;;;;19.90;50.30;;;;;;5079321;28;20390;-67
2022/01/29 07:27:59;;;;;;;;;;;19.80;50.20;;;;;;5081674;28;20312;-69
2022/01/29 07:30:25;;;;;;;;;;;19.80;50.20;;;;;;5081710;28;19938;-65
2022/01/29 07:32:50;;;;;;;;;;;19.80;50.20;;;;;;5077298;28;19912;-68
2022/01/29 07:35:16;;;;;;;;;;;19.80;50.20;;;;;;5083110;28;19919;-69
2022/01/29 07:37:41;;;;;;;;;;;19.80;50.20;;;;;;5082516;28;19947;-67
2022/01/29 07:40:07;;;;;;;;;;;19.80;50.20;;;;;;5083291;28;19923;-65
2022/01/29 07:42:33;;;;;;;;;;;19.80;50.20;;;;;;5078911;28;20316;-68
2022/01/29 07:44:58;;;;;;;;;;;19.80;50.20;;;;;;5080400;28;20579;-68
2022/01/29 07:47:24;;;;;;;;;;;19.80;50.20;;;;;;5081432;28;19920;-68
2022/01/29 07:49:49;;;;;;;;;;;19.80;50.20;;;;;;5082878;28;19912;-68
2022/01/29 07:52:15;;;;;;;;;;;19.90;50.30;;;;;;5080729;28;19920;-69
2022/01/29 07:54:40;;;;;;;;;;;19.80;50.20;;;;;;5079043;28;19916;-68
2022/01/29 07:57:06;;;;;;;;;;;19.80;50.20;;;;;;5082451;28;19965;-68
2022/01/29 07:59:31;;;;;;;;;;;19.80;50.20;;;;;;5079079;28;19939;-68
2022/01/29 08:01:56;;;;;;;;;;;19.80;50.20;;;;;;5082297;28;19920;-67
2022/01/29 08:04:24;;;;;;;;;;;19.80;50.30;;;;;;5087442;28;19973;-69
2022/01/29 08:06:50;;;;;;;;;;;19.80;50.10;;;;;;5087279;28;19916;-66
2022/01/29 08:09:16;;;;;;;;;;;19.80;49.90;;;;;;5084712;28;19997;-67
2022/01/29 08:11:41;;;;;;;;;;;19.80;49.50;;;;;;5082502;28;19912;-69
2022/01/29 08:14:07;;;;;;;;;;;19.80;49.20;;;;;;5082009;28;19912;-67
2022/01/29 08:16:32;;;;;;;;;;;19.80;49.30;;;;;;5086640;28;19974;-69
2022/01/29 08:18:58;;;;;;;;;;;19.80;49.40;;;;;;5086731;28;19924;-68
2022/01/29 08:21:23;;;;;;;;;;;19.80;49.40;;;;;;5087282;28;19913;-68
2022/01/29 08:23:49;;;;;;;;;;;19.80;49.40;;;;;;5087669;28;19920;-66
2022/01/29 08:26:14;;;;;;;;;;;19.80;49.40;;;;;;5077471;28;20059;-66
2022/01/29 08:28:40;;;;;;;;;;;19.80;49.40;;;;;;5082702;28;20323;-67
2022/01/29 08:31:06;;;;;;;;;;;19.80;49.40;;;;;;5084442;28;19916;-68
2022/01/29 08:33:31;;;;;;;;;;;19.80;49.40;;;;;;5084653;28;19920;-67
2022/01/29 08:35:58;;;;;;;;;;;19.80;49.40;;;;;;5083685;28;20390;-67
2022/01/29 08:38:23;;;;;;;;;;;19.80;49.40;;;;;;5083297;28;19916;-67
2022/01/29 08:40:49;;;;;;;;;;;19.80;49.40;;;;;;5085568;28;19927;-65
2022/01/29 08:43:15;;;;;;;;;;;19.80;49.40;;;;;;5079362;28;19920;-65
2022/01/29 08:45:40;;;;;;;;;;;19.80;49.40;;;;;;5082533;28;20053;-65
2022/01/29 08:48:06;;;;;;;;;;;19.80;49.40;;;;;;5080855;28;20052;-64
2022/01/29 08:50:31;;;;;;;;;;;19.80;49.40;;;;;;5080956;28;19920;-68
2022/01/29 08:52:57;;;;;;;;;;;19.80;49.40;;;;;;5083627;28;19912;-69
2022/01/29 08:55:22;;;;;;;;;;;19.80;49.40;;;;;;5081582;28;19943;-67
2022/01/29 08:57:49;;;;;;;;;;;19.80;49.40;;;;;;5080793;28;20316;-67
2022/01/29 09:00:15;;;;;;;;;;;19.80;49.40;;;;;;5080157;28;19916;-69
2022/01/29 09:02:40;;;;;;;;;;;19.80;49.40;;;;;;5082390;28;19939;-68
2022/01/29 09:05:06;;;;;;;;;;;19.80;49.40;;;;;;5084387;28;20053;-67
2022/01/29 09:07:32;;;;;;;;;;;19.80;49.40;;;;;;5085546;28;20038;-67
2022/01/29 09:09:57;;;;;;;;;;;19.70;49.40;;;;;;5084178;28;20542;-68
2022/01/29 09:12:23;;;;;;;;;;;19.80;49.50;;;;;;5084396;28;19924;-67
2022/01/29 09:14:48;;;;;;;;;;;19.80;49.50;;;;;;5086273;28;19976;-67
2022/01/29 09:17:14;;;;;;;;;;;19.80;49.50;;;;;;5087133;28;19973;-67
2022/01/29 09:19:39;;;;;;;;;;;19.80;49.50;;;;;;5082104;28;19985;-67
2022/01/29 09:22:05;;;;;;;;;;;19.80;49.60;;;;;;5080886;28;19920;-68
2022/01/29 09:24:30;;;;;;;;;;;19.80;49.50;;;;;;5082095;28;19923;-67
2022/01/29 09:26:56;;;;;;;;;;;19.80;49.50;;;;;;5085384;28;20367;-69
2022/01/29 09:29:22;;;;;;;;;;;19.70;49.50;;;;;;5082192;28;19912;-68
2022/01/29 09:31:48;;;;;;;;;;;19.80;49.60;;;;;;5084792;28;19920;-68
2022/01/29 09:34:13;;;;;;;;;;;19.70;49.50;;;;;;5083281;28;19921;-68
2022/01/29 09:36:39;;;;;;;;;;;19.80;49.60;;;;;;5082272;28;20011;-67
2022/01/29 09:39:04;;;;;;;;;;;19.80;49.60;;;;;;5081353;28;20114;-69
2022/01/29 09:41:31;;;;;;;;;;;19.70;49.60;;;;;;5084234;28;20032;-68
2022/01/29 09:43:56;;;;;;;;;;;19.70;49.60;;;;;;5080976;28;19916;-69
2022/01/29 09:46:22;;;;;;;;;;;19.70;49.70;;;;;;5084036;28;19919;-67
2022/01/29 09:48:48;;;;;;;;;;;19.70;49.70;;;;;;5084607;28;19935;-66
2022/01/29 09:51:15;;;;;;;;;;;19.70;49.70;;;;;;5086876;28;19920;-69
2022/01/29 09:53:43;;;;;;;;;;;19.70;49.70;;;;;;5084347;28;20118;-67
2022/01/29 09:56:17;;;;;;;;;;;19.70;49.70;;;;;;5083321;28;20253;-66
2022/01/29 09:58:43;;;;;;;;;;;19.70;49.70;;;;;;5080738;28;19951;-66
2022/01/29 10:01:09;;;;;;;;;;;19.70;49.80;;;;;;5082544;28;20340;-65
2022/01/29 10:03:35;;;;;;;;;;;19.70;49.80;;;;;;5086788;28;19965;-67
2022/01/29 10:06:01;;;;;;;;;;;19.70;49.80;;;;;;5085706;28;19912;-67
2022/01/29 10:08:26;;;;;;;;;;;19.80;49.80;;;;;;5086896;28;20336;-68
2022/01/29 10:10:53;;;;;;;;;;;19.70;49.80;;;;;;5082404;28;19969;-67
2022/01/29 10:13:27;;;;;;;;;;;19.70;49.80;;;;;;5083531;28;19919;-67
2022/01/29 10:16:03;;;;;;;;;;;19.70;49.80;;;;;;5079896;28;19931;-68
2022/01/29 10:18:30;;;;;;;;;;;19.70;49.90;;;;;;5081346;28;20376;-68
2022/01/29 10:21:07;;;;;;;;;;;19.70;49.90;;;;;;5086070;28;19916;-67
2022/01/29 10:23:32;;;;;;;;;;;19.70;49.90;;;;;;5076154;28;19916;-67
2022/01/29 10:25:58;;;;;;;;;;;19.70;49.90;;;;;;5085278;28;19916;-67
2022/01/29 10:28:23;;;;;;;;;;;19.70;50.00;;;;;;5081577;28;19912;-67
2022/01/29 10:30:49;;;;;;;;;;;19.70;50.50;;;;;;5085454;28;20003;-65
2022/01/29 10:33:25;;;;;;;;;;;19.70;50.00;;;;;;5081607;28;19912;-68
2022/01/29 10:35:54;;;;;;;;;;;19.70;50.00;;;;;;5083664;28;20363;-65
2022/01/29 10:38:25;;;;;;;;;;;19.70;50.00;;;;;;5078406;28;20274;-67
2022/01/29 10:41:10;;;;;;;;;;;19.70;50.00;;;;;;5080283;28;19931;-70
2022/01/29 10:43:36;;;;;;;;;;;19.70;50.00;;;;;;5073369;28;19920;-72
2022/01/29 10:46:02;;;;;;;;;;;19.70;50.80;;;;;;5079312;28;20291;-75
2022/01/29 10:48:43;;;;;;;;;;;19.70;50.80;;;;;;5081755;28;19927;-73
2022/01/29 10:51:12;;;;;;;;;;;19.80;50.70;;;;;;5077545;28;20265;-70
2022/01/29 10:53:37;;;;;;;;;;;19.80;50.60;;;;;;5076744;28;20295;-71
2022/01/29 10:56:04;;;;;;;;;;;19.80;50.50;;;;;;5076951;28;19921;-72
2022/01/29 10:58:30;;;;;;;;;;;19.90;50.40;;;;;;5076569;28;19916;-71
2022/01/29 11:01:14;;;;;;;;;;;20.00;50.40;;;;;;5091192;28;20064;-71
2022/01/29 11:03:40;;;;;;;;;;;20.00;50.20;;;;;;5076297;28;19927;-73
2022/01/29 11:06:07;;;;;;;;;;;20.10;50.20;;;;;;5074621;28;19985;-71
2022/01/29 11:08:33;;;;;;;;;;;20.10;50.10;;;;;;5094447;28;20502;-73
2022/01/29 11:10:59;;;;;;;;;;;20.10;50.00;;;;;;5072867;28;19922;-74
2022/01/29 11:13:25;;;;;;;;;;;20.20;50.00;;;;;;5067341;28;19916;-69
2022/01/29 11:15:52;;;;;;;;;;;20.20;49.90;;;;;;5070627;28;19916;-72
2022/01/29 11:18:17;;;;;;;;;;;20.30;49.90;;;;;;5067295;28;20011;-73
2022/01/29 11:20:43;;;;;;;;;;;20.30;49.80;;;;;;5074301;28;19979;-73
2022/01/29 11:23:09;;;;;;;;;;;20.30;49.70;;;;;;5070144;28;19947;-72
2022/01/29 11:25:35;;;;;;;;;;;20.40;49.80;;;;;;5076127;28;19926;-72
2022/01/29 11:28:17;;;;;;;;;;;20.40;49.70;;;;;;5073199;28;19920;-74
2022/01/29 11:30:43;;;;;;;;;;;20.40;49.70;;;;;;5072196;28;19916;-76
2022/01/29 11:33:09;;;;;;;;;;;20.50;49.80;;;;;;5070489;28;19932;-75
2022/01/29 11:35:52;;;;;;;;;;;20.50;50.00;;;;;;5071187;28;21321;-74
2022/01/29 11:38:33;;;;;;;;;;;20.60;49.80;;;;;;5069021;28;19920;-73
2022/01/29 11:41:03;;;;;;;;;;;20.80;49.60;;;;;;5073587;28;19924;-71
2022/01/29 11:43:30;;;;;;;;;;;20.90;49.40;;;;;;5065030;28;19924;-70
2022/01/29 11:46:04;;;;;;;;;;;21.00;49.20;;;;;;5074102;28;19986;-69
2022/01/29 11:48:32;;;;;;;;;;;21.00;49.10;;;;;;5073168;28;20402;-70
2022/01/29 11:50:58;;;;;;;;;;;21.00;49.00;;;;;;5073106;28;19997;-70
2022/01/29 11:53:24;;;;;;;;;;;21.00;48.90;;;;;;5077317;28;19919;-70
2022/01/29 11:55:54;;;;;;;;;;;21.10;48.90;;;;;;5074999;28;20303;-72
2022/01/29 11:58:21;;;;;;;;;;;21.10;48.90;;;;;;5071402;28;20710;-73
2022/01/29 12:00:48;;;;;;;;;;;21.10;48.90;;;;;;5071208;28;20037;-73
2022/01/29 12:03:33;;;;;;;;;;;21.10;48.80;;;;;;5073648;28;19928;-72
2022/01/29 12:09:00;;;;;;;;;;;21.10;48.70;;;;;;5074759;28;19916;-74
2022/01/29 12:11:27;;;;;;;;;;;21.10;48.60;;;;;;5070453;28;19919;-73
2022/01/29 12:14:11;;;;;;;;;;;21.10;48.50;;;;;;5067836;28;19920;-72
2022/01/29 12:16:47;;;;;;;;;;;21.10;48.40;;;;;;5068402;28;19984;-72
2022/01/29 12:19:31;;;;;;;;;;;21.10;48.30;;;;;;5072380;28;19926;-73
2022/01/29 12:21:56;;;;;;;;;;;21.10;48.30;;;;;;5076346;28;19955;-71
2022/01/29 12:24:22;;;;;;;;;;;21.10;48.30;;;;;;5076749;28;19963;-74
2022/01/29 12:26:57;;;;;;;;;;;21.20;48.30;;;;;;5074342;28;20026;-70
2022/01/29 12:29:23;;;;;;;;;;;21.20;48.30;;;;;;5071365;28;20007;-72
2022/01/29 12:31:52;;;;;;;;;;;21.20;48.20;;;;;;5073630;28;20007;-73
2022/01/29 12:34:20;;;;;;;;;;;21.20;48.20;;;;;;5070407;28;19928;-72
2022/01/29 12:36:46;;;;;;;;;;;21.30;48.10;;;;;;5077200;28;20080;-69
2022/01/29 12:39:20;;;;;;;;;;;21.20;48.10;;;;;;5069381;28;20535;-73
2022/01/29 12:42:00;;;;;;;;;;;21.20;48.10;;;;;;5072639;28;20457;-72
2022/01/29 12:44:26;;;;;;;;;;;21.30;48.10;;;;;;5067033;28;19949;-71
2022/01/29 12:46:51;;;;;;;;;;;21.30;48.50;;;;;;5071492;28;20389;-67
2022/01/29 12:49:17;;;;;;;;;;;21.30;48.30;;;;;;5073948;28;19920;-68
2022/01/29 12:51:50;;;;;;;;;;;21.30;48.10;;;;;;5076885;28;19916;-72
2022/01/29 12:54:15;;;;;;;;;;;21.30;48.10;;;;;;5073150;28;20031;-69
2022/01/29 12:56:41;;;;;;;;;;;21.40;48.10;;;;;;5070312;28;20427;-71
2022/01/29 12:59:08;;;;;;;;;;;21.40;48.10;;;;;;5068100;28;19916;-71
2022/01/29 13:01:34;;;;;;;;;;;21.30;48.10;;;;;;5072834;28;21714;-66
2022/01/29 13:04:03;;;;;;;;;;;21.40;48.00;;;;;;5071127;28;19924;-69
2022/01/29 13:06:29;;;;;;;;;;;21.40;48.10;;;;;;5066110;28;19920;-68
2022/01/29 13:09:10;;;;;;;;;;;21.40;48.10;;;;;;5070053;28;19939;-68
2022/01/29 13:11:36;;;;;;;;;;;21.40;48.00;;;;;;5068907;28;20244;-69
2022/01/29 13:14:09;;;;;;;;;;;21.40;48.00;;;;;;5070088;28;19920;-70
2022/01/29 13:16:35;;;;;;;;;;;21.40;48.00;;;;;;5070002;28;19924;-69
2022/01/29 13:19:00;;;;;;;;;;;21.40;47.90;;;;;;5072819;28;19920;-70
2022/01/29 13:21:27;;;;;;;;;;;21.40;47.90;;;;;;5069970;28;20283;-70
2022/01/29 13:23:56;;;;;;;;;;;21.40;48.40;;;;;;5070658;28;20007;-69
2022/01/29 13:26:28;;;;;;;;;;;21.40;47.80;;;;;;5072823;28;20059;-70
2022/01/29 13:29:08;;;;;;;;;;;21.40;47.90;;;;;;5074675;28;20401;-69
2022/01/29 13:31:43;;;;;;;;;;;21.40;47.80;;;;;;5070690;28;20211;-70
2022/01/29 13:34:23;;;;;;;;;;;21.50;47.90;;;;;;5070265;28;19920;-70
2022/01/29 13:36:49;;;;;;;;;;;21.50;47.80;;;;;;5071063;28;20009;-70
2022/01/29 13:39:15;;;;;;;;;;;21.50;47.80;;;;;;5068809;28;20384;-68
2022/01/29 13:41:40;;;;;;;;;;;21.50;47.80;;;;;;5072146;28;20761;-70
2022/01/29 13:44:09;;;;;;;;;;;21.50;47.80;;;;;;5073481;28;20350;-70
2022/01/29 13:46:35;;;;;;;;;;;21.50;47.80;;;;;;5073996;28;20268;-68
2022/01/29 13:49:02;;;;;;;;;;;21.50;47.80;;;;;;5078493;28;20007;-70
2022/01/29 13:51:34;;;;;;;;;;;21.50;47.80;;;;;;5080091;28;20043;-69
2022/01/29 13:54:00;;;;;;;;;;;21.40;47.80;;;;;;5075536;28;19923;-70
2022/01/29 13:56:28;;;;;;;;;;;21.50;47.80;;;;;;5080095;28;19927;-68
2022/01/29 13:58:58;;;;;;;;;;;21.40;47.70;;;;;;5068564;28;19924;-70
2022/01/29 14:01:39;;;;;;;;;;;21.50;47.80;;;;;;5075461;28;19920;-68
2022/01/29 14:04:06;;;;;;;;;;;21.40;47.80;;;;;;5077873;28;19920;-70
2022/01/29 14:06:54;;;;;;;;;;;21.40;47.80;;;;;;5074834;28;19920;-70
2022/01/29 14:09:24;;;;;;;;;;;21.40;47.80;;;;;;5076183;28;19925;-70
2022/01/29 14:11:52;;;;;;;;;;;21.40;47.80;;;;;;5078844;28;19923;-70
2022/01/29 14:14:18;;;;;;;;;;;21.40;47.80;;;;;;5070264;28;20697;-68
2022/01/29 14:16:43;;;;;;;;;;;21.40;47.80;;;;;;5074822;28;20027;-70
2022/01/29 14:19:12;;;;;;;;;;;21.40;47.80;;;;;;5077165;28;19916;-68
2022/01/29 14:21:38;;;;;;;;;;;21.40;47.80;;;;;;5073155;28;20434;-68
2022/01/29 14:24:03;;;;;;;;;;;21.40;47.70;;;;;;5079693;28;19915;-70
2022/01/29 14:26:32;;;;;;;;;;;21.40;47.70;;;;;;5075375;28;19916;-70
2022/01/29 14:28:58;;;;;;;;;;;21.40;47.80;;;;;;5068456;28;19955;-70
2022/01/29 14:31:23;;;;;;;;;;;21.40;48.20;;;;;;5071939;28;19916;-71